Aviation Digital Data Service (ADDS)

Output produced by METARs form (0027 UTC 24 March 2019)
found at http://aviationweather.gov/metar/data/
 
METAR text: KUAO 232353Z 24008KT 10SM SCT037 14/05 A3018 RMK AO2 SLP220 T01390050 10150 20100 55003
Conditions at: KUAO (AURORA , OR, US) observed 2353 UTC 23 March 2019
Temperature: 13.9°C (57°F)
Dewpoint: 5.0°C (41°F) [RH = 55%]
Pressure (altimeter): 30.18 inches Hg (1022.1 mb)
[Sea-level pressure: 1022.0 mb]
Winds: from the WSW (240 degrees) at 9 MPH (8 knots; 4.1 m/s)
Visibility: 10 or more miles (16+ km)
Ceiling: at least 12,000 feet AGL
Clouds: scattered clouds at 3700 feet AGL
Weather: no significant weather observed at this time

METAR text: KUAO 232253Z VRB03KT 10SM SCT037 15/03 A3018 RMK AO2 SLP218 T01500033
Conditions at: KUAO (AURORA , OR, US) observed 2253 UTC 23 March 2019
Temperature: 15.0°C (59°F)
Dewpoint: 3.3°C (38°F) [RH = 45%]
Pressure (altimeter): 30.18 inches Hg (1022.1 mb)
[Sea-level pressure: 1021.8 mb]
Winds: variable direction winds at 3 MPH (3 knots; 1.5 m/s)
Visibility: 10 or more miles (16+ km)
Ceiling: at least 12,000 feet AGL
Clouds: scattered clouds at 3700 feet AGL
Weather: no significant weather observed at this time

Forecast for: KUAO (AURORA , OR, US)
Text: KUAO 232339Z 2400/2424 19004KT P6SM VCSH SCT035
Forecast period: 0000 to 0400 UTC 24 March 2019
Forecast type: FROM: standard forecast or significant change
Winds: from the S (190 degrees) at 5 MPH (4 knots; 2.1 m/s)
Visibility: 6 or more miles 10+ km)
Ceiling: at least 12,000 feet AGL
Clouds: scattered clouds at 3500 feet AGL
Weather: VCSH  (showers in vicinity)
Text: FM240400 00000KT P6SM BKN045
Forecast period: 0400 to 0800 UTC 24 March 2019
Forecast type: FROM: standard forecast or significant change
Winds: calm
Visibility: 6 or more miles 10+ km)
Ceiling: 4500 feet AGL
Clouds: broken clouds at 4500 feet AGL
Weather: no significant weather forecast for this period
Text: FM240800 00000KT P6SM FEW040 BKN250
Forecast period: 0800 to 1200 UTC 24 March 2019
Forecast type: FROM: standard forecast or significant change
Winds: calm
Visibility: 6 or more miles 10+ km)
Ceiling: 25000 feet AGL
Clouds: few clouds at 4000 feet AGL
broken clouds at 25000 feet AGL
Weather: no significant weather forecast for this period
Text: FM241200 00000KT 2SM BR BKN004
Forecast period: 1200 to 1700 UTC 24 March 2019
Forecast type: FROM: standard forecast or significant change
Winds: calm
Visibility: 2.00 miles (3.22 km)
Ceiling: 400 feet AGL
Clouds: broken clouds at 400 feet AGL
Weather: BR  (mist)
Text: FM241700 VRB03KT P6SM FEW010
Forecast period: 1700 UTC 24 March 2019 to 0000 UTC 25 March 2019
Forecast type: FROM: standard forecast or significant change
Winds: variable direction winds at 3 MPH (3 knots; 1.5 m/s)
Visibility: 6 or more miles 10+ km)
Ceiling: at least 12,000 feet AGL
Clouds: few clouds at 1000 feet AGL
Weather: no significant weather forecast for this period